createdAt,value
2019-02-26T00:01:26.230Z,94.63
2019-02-26T00:03:55.995Z,85.67
2019-02-26T00:06:26.237Z,85.20
2019-02-26T00:08:58.598Z,77.47
2019-02-26T00:11:29.039Z,77.17
2019-02-26T00:13:58.997Z,85.87
2019-02-26T00:16:28.249Z,75.47
2019-02-26T00:19:00.677Z,71.43
2019-02-26T00:21:29.306Z,62.13
2019-02-26T00:23:59.105Z,67.43
2019-02-26T00:26:28.266Z,65.10
2019-02-26T00:28:59.635Z,66.47
2019-02-26T00:31:30.186Z,68.77
2019-02-26T00:33:59.181Z,63.10
2019-02-26T00:36:29.726Z,59.63
2019-02-26T00:39:00.636Z,59.87
2019-02-26T00:41:31.856Z,64.30
2019-02-26T00:44:02.237Z,63.43
2019-02-26T00:46:32.511Z,65.67
2019-02-26T00:49:03.193Z,68.83
2019-02-26T00:51:33.430Z,63.57
2019-02-26T00:54:04.121Z,62.13
2019-02-26T00:56:34.072Z,60.40
2019-02-26T00:59:04.283Z,59.87
2019-02-26T01:01:33.435Z,55.70
2019-02-26T01:04:02.613Z,57.13
2019-02-26T01:06:33.417Z,53.37
2019-02-26T01:09:05.536Z,53.90
2019-02-26T01:11:33.725Z,56.70
2019-02-26T01:14:02.821Z,56.57
2019-02-26T01:16:31.965Z,61.03
2019-02-26T01:19:01.083Z,56.67
2019-02-26T01:21:31.236Z,57.93
2019-02-26T01:24:01.748Z,68.17
2019-02-26T01:26:32.040Z,58.03
2019-02-26T01:29:01.193Z,56.03
2019-02-26T01:31:32.081Z,58.70
2019-02-26T01:34:01.153Z,55.00
2019-02-26T01:36:30.274Z,53.77
2019-02-26T01:38:59.380Z,50.40
2019-02-26T01:41:28.609Z,56.80
2019-02-26T01:43:57.845Z,54.13
2019-02-26T01:46:26.946Z,63.47
2019-02-26T01:48:57.650Z,57.83
2019-02-26T01:51:28.618Z,57.00
2019-02-26T01:53:57.769Z,63.70
2019-02-26T01:56:26.901Z,57.77
2019-02-26T01:58:56.844Z,57.97
2019-02-26T02:01:26.997Z,52.57
2019-02-26T02:03:56.434Z,60.00
2019-02-26T02:06:25.660Z,57.50
2019-02-26T02:08:55.696Z,57.60
2019-02-26T02:11:28.265Z,59.97
2019-02-26T02:13:55.865Z,59.93
2019-02-26T02:16:28.559Z,58.33
2019-02-26T02:18:58.213Z,57.90
2019-02-26T02:21:30.407Z,63.70
2019-02-26T02:23:57.789Z,55.37
2019-02-26T02:26:26.913Z,58.40
2019-02-26T02:28:56.049Z,59.50
2019-02-26T02:31:30.368Z,52.40
2019-02-26T02:33:56.044Z,57.03
2019-02-26T02:36:26.480Z,51.50
2019-02-26T02:38:55.856Z,57.90
2019-02-26T02:41:24.981Z,54.57
2019-02-26T02:43:54.113Z,57.17
2019-02-26T02:46:23.234Z,61.33
2019-02-26T02:48:52.348Z,59.00
2019-02-26T02:51:21.489Z,57.20
2019-02-26T02:53:53.527Z,55.00
2019-02-26T02:56:21.503Z,51.67
2019-02-26T02:58:51.601Z,55.80
2019-02-26T03:01:24.434Z,51.10
2019-02-26T03:03:53.798Z,49.17
2019-02-26T03:06:24.225Z,52.93
2019-02-26T03:08:53.626Z,56.73
2019-02-26T03:11:22.737Z,45.23
2019-02-26T03:13:53.719Z,51.23
2019-02-26T03:16:25.045Z,52.50
2019-02-26T03:18:53.669Z,58.07
2019-02-26T03:21:24.817Z,49.40
2019-02-26T03:23:53.734Z,50.13
2019-02-26T03:26:23.553Z,53.13
2019-02-26T03:28:53.747Z,51.07
2019-02-26T03:31:28.866Z,49.10
2019-02-26T03:34:00.194Z,53.67
2019-02-26T03:36:24.656Z,46.43
2019-02-26T03:38:54.830Z,52.03
2019-02-26T03:41:26.134Z,47.93
2019-02-26T03:43:58.469Z,50.80
2019-02-26T03:46:26.342Z,47.70
2019-02-26T03:48:55.477Z,45.73
2019-02-26T03:51:24.591Z,46.30
2019-02-26T03:53:53.729Z,48.43
2019-02-26T03:56:22.845Z,46.80
2019-02-26T03:58:54.880Z,45.53
2019-02-26T04:01:22.953Z,43.70
2019-02-26T04:03:54.514Z,41.63
2019-02-26T04:06:23.237Z,42.20
2019-02-26T04:08:53.794Z,48.87
2019-02-26T04:11:25.647Z,39.43
2019-02-26T04:13:56.538Z,46.43
2019-02-26T04:16:25.021Z,43.70
2019-02-26T04:18:54.172Z,35.97
2019-02-26T04:21:23.305Z,41.13
2019-02-26T04:23:52.848Z,39.93
2019-02-26T04:27:04.645Z,44.97
2019-02-26T04:30:16.099Z,43.77
2019-02-26T04:33:09.574Z,43.47
2019-02-26T04:36:26.385Z,37.27
2019-02-26T04:39:28.790Z,36.57
2019-02-26T04:42:20.443Z,43.83
2019-02-26T04:45:18.925Z,43.23
2019-02-26T04:47:49.514Z,42.87
2019-02-26T04:50:23.010Z,40.27
2019-02-26T04:52:49.885Z,41.20
2019-02-26T04:55:19.019Z,42.00
2019-02-26T04:57:50.075Z,42.70
2019-02-26T05:00:19.026Z,38.80
2019-02-26T05:02:48.129Z,41.50
2019-02-26T05:05:17.294Z,41.67
2019-02-26T05:07:47.086Z,39.57
2019-02-26T05:10:17.277Z,39.77
2019-02-26T05:12:46.589Z,44.17
2019-02-26T05:15:18.055Z,46.03
2019-02-26T05:17:46.593Z,42.50
2019-02-26T05:20:18.849Z,47.93
2019-02-26T05:22:46.556Z,40.27
2019-02-26T05:25:19.159Z,47.63
2019-02-26T05:27:48.801Z,44.17
2019-02-26T05:30:21.729Z,44.33
2019-02-26T05:32:48.333Z,46.17
2019-02-26T05:35:20.331Z,46.97
2019-02-26T05:37:48.409Z,46.90
2019-02-26T05:40:19.773Z,44.80
2019-02-26T05:42:48.521Z,51.93
2019-02-26T05:45:17.654Z,45.83
2019-02-26T05:47:48.884Z,49.63
2019-02-26T05:50:17.722Z,49.53
2019-02-26T05:52:49.801Z,50.20
2019-02-26T05:55:20.011Z,52.03
2019-02-26T05:57:48.533Z,57.07
2019-02-26T06:00:21.511Z,55.73
2019-02-26T06:02:50.975Z,53.13
2019-02-26T06:05:20.459Z,46.63
2019-02-26T06:07:52.120Z,54.27
2019-02-26T06:10:23.893Z,56.17
2019-02-26T06:12:52.439Z,58.80
2019-02-26T06:15:23.026Z,50.43
2019-02-26T06:17:53.504Z,59.87
2019-02-26T06:20:25.901Z,63.73
2019-02-26T06:22:54.336Z,55.73
2019-02-26T06:25:24.535Z,59.53
2019-02-26T06:27:53.977Z,58.03
2019-02-26T06:30:23.980Z,57.60
2019-02-26T06:32:53.241Z,58.20
2019-02-26T06:35:22.402Z,57.17
2019-02-26T06:37:51.517Z,58.23
2019-02-26T06:40:20.645Z,61.37
2019-02-26T06:42:49.792Z,55.43
2019-02-26T06:45:18.897Z,59.40
2019-02-26T06:47:51.076Z,58.20
2019-02-26T06:50:19.144Z,59.17
2019-02-26T06:52:50.573Z,60.07
2019-02-26T06:55:19.397Z,63.60
2019-02-26T06:57:50.641Z,62.07
2019-02-26T07:00:21.802Z,63.30
2019-02-26T07:02:50.237Z,62.07
2019-02-26T07:05:19.358Z,60.13
2019-02-26T07:07:48.482Z,66.50
2019-02-26T07:10:21.535Z,62.83
2019-02-26T07:12:50.545Z,59.13
2019-02-26T07:15:19.557Z,73.23
2019-02-26T07:17:48.669Z,62.77
2019-02-26T07:20:17.998Z,70.00
2019-02-26T07:22:49.162Z,70.90
2019-02-26T07:25:18.623Z,77.00
2019-02-26T07:27:47.958Z,86.63
2019-02-26T07:30:17.097Z,77.60
2019-02-26T07:32:48.244Z,80.47
2019-02-26T07:35:17.605Z,77.07
2019-02-26T07:37:48.174Z,77.60
2019-02-26T07:40:18.738Z,68.47
2019-02-26T07:42:49.390Z,69.23
2019-02-26T07:45:21.879Z,73.13
2019-02-26T07:47:55.433Z,66.33
2019-02-26T07:50:22.849Z,71.47
2019-02-26T07:52:54.444Z,64.70
2019-02-26T07:55:23.432Z,69.57
2019-02-26T07:57:53.194Z,72.60
2019-02-26T08:00:23.719Z,80.83
2019-02-26T08:02:56.430Z,66.77
2019-02-26T08:05:26.806Z,80.10
2019-02-26T08:07:56.481Z,72.90
2019-02-26T08:10:25.948Z,72.20
2019-02-26T08:12:56.634Z,83.33
2019-02-26T08:15:27.817Z,72.07
2019-02-26T08:17:59.931Z,75.00
2019-02-26T08:20:30.254Z,82.60
2019-02-26T08:23:01.207Z,82.10
2019-02-26T08:25:30.076Z,78.93
2019-02-26T08:28:01.202Z,80.87
2019-02-26T08:30:30.213Z,84.47
2019-02-26T08:33:01.998Z,76.77
2019-02-26T08:35:30.659Z,78.50
2019-02-26T08:37:59.765Z,70.13
2019-02-26T08:40:28.993Z,77.80
2019-02-26T08:42:58.293Z,83.33
2019-02-26T08:45:27.405Z,82.67
2019-02-26T08:47:57.610Z,71.93
2019-02-26T08:50:30.652Z,67.37
2019-02-26T08:52:58.505Z,69.37
2019-02-26T08:55:27.902Z,66.33
2019-02-26T08:57:57.257Z,72.63
2019-02-26T09:00:26.437Z,70.13
2019-02-26T09:02:56.656Z,73.60
2019-02-26T09:05:28.230Z,70.63
2019-02-26T09:07:56.982Z,68.57
2019-02-26T09:10:26.279Z,67.00
2019-02-26T09:12:55.425Z,61.50
2019-02-26T09:15:24.632Z,66.73
2019-02-26T09:17:53.813Z,66.17
2019-02-26T09:20:22.957Z,65.30
2019-02-26T09:22:54.433Z,66.00
2019-02-26T09:25:25.983Z,65.77
2019-02-26T09:27:53.879Z,63.80
2019-02-26T09:30:23.126Z,62.87
2019-02-26T09:32:52.635Z,65.93
2019-02-26T09:35:27.052Z,64.30
2019-02-26T09:37:55.606Z,61.20
2019-02-26T09:40:26.067Z,63.87
2019-02-26T09:42:57.364Z,60.37
2019-02-26T09:45:28.760Z,60.77
2019-02-26T09:47:57.997Z,58.90
2019-02-26T09:50:27.515Z,64.10
2019-02-26T09:52:59.053Z,59.47
2019-02-26T09:55:27.482Z,57.50
2019-02-26T09:57:56.629Z,60.03
2019-02-26T10:00:29.013Z,55.10
2019-02-26T10:02:56.600Z,63.27
2019-02-26T10:05:26.118Z,54.73
2019-02-26T10:07:58.000Z,62.27
2019-02-26T10:10:29.132Z,64.37
2019-02-26T10:12:59.452Z,62.40
2019-02-26T10:15:27.876Z,60.97
2019-02-26T10:17:59.595Z,65.17
2019-02-26T10:20:29.462Z,64.43
2019-02-26T10:23:01.208Z,59.10
2019-02-26T10:25:31.938Z,64.10
2019-02-26T10:28:05.786Z,55.43
2019-02-26T10:30:33.938Z,60.40
2019-02-26T10:33:03.007Z,55.50
2019-02-26T10:35:35.635Z,57.00
2019-02-26T10:38:05.831Z,61.97
2019-02-26T10:40:35.594Z,63.10
2019-02-26T10:43:05.094Z,62.40
2019-02-26T10:45:38.736Z,59.53
2019-02-26T10:48:05.609Z,68.70
2019-02-26T10:50:36.701Z,67.57
2019-02-26T10:53:09.788Z,63.43
2019-02-26T10:55:41.197Z,59.50
2019-02-26T10:58:11.083Z,59.03
2019-02-26T11:00:38.454Z,66.17
2019-02-26T11:03:09.178Z,65.57
2019-02-26T11:05:39.717Z,65.57
2019-02-26T11:08:09.747Z,64.67
2019-02-26T11:10:41.887Z,59.90
2019-02-26T11:13:12.439Z,62.70
2019-02-26T11:15:40.929Z,56.83
2019-02-26T11:18:11.778Z,56.57
2019-02-26T11:20:41.036Z,57.83
2019-02-26T11:23:13.286Z,56.93
2019-02-26T11:25:41.092Z,53.60
2019-02-26T11:28:12.802Z,61.27
2019-02-26T11:30:41.439Z,60.10
2019-02-26T11:33:13.156Z,59.27
2019-02-26T11:35:43.889Z,58.07
2019-02-26T11:38:14.925Z,55.20
2019-02-26T11:40:43.727Z,58.13
2019-02-26T11:43:14.994Z,56.63
2019-02-26T11:45:44.518Z,58.67
2019-02-26T11:48:13.769Z,53.60
2019-02-26T11:50:44.586Z,62.77
2019-02-26T11:53:14.045Z,73.90
2019-02-26T11:55:43.173Z,65.97
2019-02-26T11:58:13.651Z,68.13
2019-02-26T12:01:03.384Z,62.17
2019-02-26T12:03:34.168Z,56.57
2019-02-26T12:06:03.342Z,59.90
2019-02-26T12:08:32.653Z,60.63
2019-02-26T12:11:03.968Z,57.43
2019-02-26T12:13:32.627Z,57.60
2019-02-26T12:16:01.801Z,57.70
2019-02-26T12:18:31.013Z,66.93
2019-02-26T12:21:02.682Z,61.27
2019-02-26T12:23:31.033Z,65.00
2019-02-26T12:26:02.069Z,59.20
2019-02-26T12:28:32.422Z,62.70
2019-02-26T12:31:04.339Z,57.87
2019-02-26T12:33:33.345Z,58.03
2019-02-26T12:36:04.597Z,64.60
2019-02-26T12:38:36.561Z,67.87
2019-02-26T12:41:08.185Z,66.50
2019-02-26T12:43:36.730Z,63.07
2019-02-26T12:48:40.472Z,65.17
2019-02-26T12:51:08.254Z,72.87
2019-02-26T12:53:49.876Z,74.33
2019-02-26T12:56:17.886Z,65.00
2019-02-26T12:58:48.472Z,61.97
2019-02-26T13:01:17.860Z,71.10
2019-02-26T13:03:51.089Z,67.77
2019-02-26T13:06:18.875Z,50.80
2019-02-26T13:08:50.528Z,47.53
2019-02-26T13:11:20.954Z,44.73
2019-02-26T13:13:53.265Z,39.87
2019-02-26T13:16:21.341Z,44.20
2019-02-26T13:18:51.654Z,45.80
2019-02-26T13:21:21.514Z,37.93
2019-02-26T13:23:50.649Z,33.17
2019-02-26T13:26:22.552Z,39.17
2019-02-26T13:28:53.015Z,47.23
2019-02-26T13:31:22.720Z,40.70
2019-02-26T13:33:52.193Z,41.60
2019-02-26T13:36:21.798Z,36.77
2019-02-26T13:38:51.042Z,34.03
2019-02-26T13:41:29.344Z,35.23
2019-02-26T13:43:51.114Z,36.77
2019-02-26T13:46:20.317Z,36.43
2019-02-26T13:48:49.440Z,37.60
2019-02-26T13:51:18.617Z,41.20
2019-02-26T13:53:47.751Z,40.47
2019-02-26T13:56:16.913Z,51.23
2019-02-26T13:58:46.061Z,45.13
2019-02-26T14:01:15.170Z,33.70
2019-02-26T14:03:44.344Z,36.80
2019-02-26T14:06:13.466Z,36.57
2019-02-26T14:08:42.733Z,41.93
2019-02-26T14:11:11.880Z,38.40
2019-02-26T14:13:41.097Z,33.77
2019-02-26T14:16:10.269Z,39.47
2019-02-26T14:18:39.423Z,36.80
2019-02-26T14:21:08.529Z,46.63
2019-02-26T14:23:37.682Z,29.23
2019-02-26T14:26:06.828Z,36.87
2019-02-26T14:28:35.969Z,43.83
2019-02-26T14:31:05.102Z,40.13
2019-02-26T14:33:34.630Z,42.57
2019-02-26T14:36:03.926Z,44.57
2019-02-26T14:38:33.574Z,38.50
2019-02-26T14:41:02.795Z,38.33
2019-02-26T14:43:31.994Z,48.07
2019-02-26T14:46:01.156Z,40.20
2019-02-26T14:48:30.357Z,39.23
2019-02-26T14:50:59.560Z,46.07
2019-02-26T14:53:28.730Z,46.87
2019-02-26T14:55:57.887Z,51.93
2019-02-26T14:58:27.009Z,44.17
2019-02-26T15:00:57.830Z,44.50
2019-02-26T15:03:27.121Z,52.47
2019-02-26T15:05:56.316Z,47.70
2019-02-26T15:08:25.752Z,50.50
2019-02-26T15:10:54.856Z,47.00
2019-02-26T15:13:25.470Z,51.13
2019-02-26T15:15:54.953Z,53.73
2019-02-26T15:18:24.148Z,47.57
2019-02-26T15:20:53.350Z,49.23
2019-02-26T15:23:22.498Z,48.80
2019-02-26T15:25:51.616Z,50.60
2019-02-26T15:28:20.771Z,42.53
2019-02-26T15:30:49.897Z,40.67
2019-02-26T15:33:19.089Z,52.03
2019-02-26T15:35:48.251Z,50.50
2019-02-26T15:38:17.369Z,40.00
2019-02-26T15:40:46.480Z,62.47
2019-02-26T15:43:15.621Z,49.97
2019-02-26T15:45:51.789Z,45.67
2019-02-26T15:48:15.639Z,44.53
2019-02-26T15:50:44.775Z,73.17
2019-02-26T15:53:14.028Z,51.17
2019-02-26T15:55:44.030Z,85.03
2019-02-26T15:58:13.138Z,63.67
2019-02-26T16:00:42.323Z,53.87
2019-02-26T16:03:11.582Z,49.03
2019-02-26T16:05:41.005Z,47.13
2019-02-26T16:08:10.318Z,49.97
2019-02-26T16:10:39.562Z,79.40
2019-02-26T16:13:09.020Z,66.47
2019-02-26T16:15:38.526Z,50.20
2019-02-26T16:18:07.694Z,54.90
2019-02-26T16:20:37.092Z,48.17
2019-02-26T16:23:06.336Z,51.67
2019-02-26T16:25:35.530Z,51.73
2019-02-26T16:28:04.894Z,58.67
2019-02-26T16:30:34.110Z,56.73
2019-02-26T16:33:03.303Z,57.27
2019-02-26T16:35:32.695Z,48.97
2019-02-26T16:38:01.917Z,53.57
2019-02-26T16:40:32.269Z,60.77
2019-02-26T16:43:01.699Z,62.23
2019-02-26T16:45:34.321Z,58.57
2019-02-26T16:48:01.697Z,66.57
2019-02-26T16:50:30.858Z,58.07
2019-02-26T16:53:00.329Z,58.97
2019-02-26T16:55:30.366Z,56.00
2019-02-26T16:58:02.364Z,70.23
2019-02-26T17:00:30.718Z,69.93
2019-02-26T17:03:00.772Z,64.70
2019-02-26T17:05:30.542Z,68.00
2019-02-26T17:07:59.925Z,75.50
2019-02-26T17:10:30.477Z,73.53
2019-02-26T17:13:02.345Z,59.97
2019-02-26T17:15:30.778Z,71.37
2019-02-26T17:17:59.918Z,74.53
2019-02-26T17:20:29.239Z,73.20
2019-02-26T17:22:58.347Z,78.77
2019-02-26T17:25:28.827Z,76.17
2019-02-26T17:27:58.269Z,73.33
2019-02-26T17:30:27.468Z,79.40
2019-02-26T17:32:56.677Z,89.47
2019-02-26T17:35:28.572Z,77.37
2019-02-26T17:37:56.822Z,83.83
2019-02-26T17:40:26.033Z,80.40
2019-02-26T17:42:55.179Z,91.17
2019-02-26T17:45:24.601Z,89.60
2019-02-26T17:47:56.490Z,86.73
2019-02-26T17:50:27.857Z,97.13
2019-02-26T17:52:56.969Z,85.47
2019-02-26T17:55:26.477Z,88.37
2019-02-26T17:57:55.584Z,81.27
2019-02-26T18:00:25.455Z,85.73
2019-02-26T18:02:54.620Z,88.20
2019-02-26T18:05:23.749Z,81.97
2019-02-26T18:07:52.925Z,80.33
2019-02-26T18:10:22.113Z,86.50
2019-02-26T18:12:51.238Z,89.47
2019-02-26T18:15:20.880Z,104.57
2019-02-26T18:17:50.205Z,105.27
2019-02-26T18:20:19.550Z,109.00
2019-02-26T18:22:48.858Z,116.93
2019-02-26T18:25:18.354Z,129.27
2019-02-26T18:27:47.464Z,109.67
2019-02-26T18:30:18.622Z,95.93
2019-02-26T18:32:50.258Z,96.77
2019-02-26T18:35:18.633Z,97.90
2019-02-26T18:37:47.862Z,87.57
2019-02-26T18:40:17.073Z,90.03
2019-02-26T18:42:46.787Z,81.67
2019-02-26T18:45:21.301Z,85.43
2019-02-26T18:47:50.474Z,87.90
2019-02-26T18:50:19.613Z,77.43
2019-02-26T18:52:48.745Z,81.33
2019-02-26T18:55:18.497Z,77.43
2019-02-26T18:57:47.633Z,81.37
2019-02-26T19:00:19.049Z,78.20
2019-02-26T19:02:48.156Z,81.33
2019-02-26T19:05:20.421Z,79.77
2019-02-26T19:07:48.442Z,83.37
2019-02-26T19:10:20.633Z,80.83
2019-02-26T19:12:48.667Z,86.30
2019-02-26T19:15:18.466Z,87.67
2019-02-26T19:17:49.216Z,92.10
2019-02-26T19:20:20.157Z,89.90
2019-02-26T19:22:49.401Z,86.60
2019-02-26T19:25:18.573Z,93.27
2019-02-26T19:27:47.714Z,92.03
2019-02-26T19:30:17.958Z,85.83
2019-02-26T19:32:47.789Z,104.03
2019-02-26T19:35:17.589Z,93.33
2019-02-26T19:37:47.414Z,94.97
2019-02-26T19:40:18.254Z,102.73
2019-02-26T19:42:47.422Z,99.47
2019-02-26T19:45:16.560Z,104.27
2019-02-26T19:47:45.662Z,99.87
2019-02-26T19:50:14.996Z,91.03
2019-02-26T19:52:44.384Z,101.07
2019-02-26T19:55:22.086Z,97.97
2019-02-26T19:57:51.190Z,107.73
2019-02-26T20:00:20.523Z,126.60
2019-02-26T20:02:49.711Z,138.27
2019-02-26T20:05:19.041Z,166.90
2019-02-26T20:07:49.160Z,189.97
2019-02-26T20:10:18.453Z,202.47
2019-02-26T20:12:47.581Z,210.67
2019-02-26T20:15:16.782Z,221.93
2019-02-26T20:17:48.930Z,218.13
2019-02-26T20:20:16.939Z,231.30
2019-02-26T20:22:46.130Z,231.07
2019-02-26T20:25:16.149Z,238.37
2019-02-26T20:27:45.591Z,228.93
2019-02-26T20:30:16.659Z,220.00
2019-02-26T20:32:45.834Z,222.40
2019-02-26T20:35:16.048Z,216.50
2019-02-26T20:37:45.279Z,225.13
2019-02-26T20:40:16.840Z,217.83
2019-02-26T20:42:46.193Z,206.37
2019-02-26T20:45:18.142Z,197.13
2019-02-26T20:47:47.437Z,194.80
2019-02-26T20:50:19.957Z,212.93
2019-02-26T20:52:47.618Z,204.63
2019-02-26T20:55:19.212Z,212.57
2019-02-26T20:57:49.141Z,207.33
2019-02-26T21:00:18.906Z,187.50
2019-02-26T21:02:48.109Z,201.63
2019-02-26T21:05:17.253Z,186.50
2019-02-26T21:07:46.377Z,183.10
2019-02-26T21:10:16.136Z,174.67
2019-02-26T21:12:46.291Z,179.17
2019-02-26T21:15:17.085Z,167.43
2019-02-26T21:17:46.220Z,165.73
2019-02-26T21:20:16.189Z,168.30
2019-02-26T21:22:45.326Z,166.93
2019-02-26T21:25:14.759Z,153.27
2019-02-26T21:27:44.007Z,168.83
2019-02-26T21:30:15.277Z,162.13
2019-02-26T21:32:44.389Z,154.77
2019-02-26T21:35:13.664Z,148.53
2019-02-26T21:37:42.847Z,121.47
2019-02-26T21:40:15.912Z,129.27
2019-02-26T21:42:43.513Z,121.87
2019-02-26T21:45:15.989Z,113.23
2019-02-26T21:47:44.200Z,106.63
2019-02-26T21:50:13.529Z,113.83
2019-02-26T21:52:42.950Z,103.20
2019-02-26T21:55:12.098Z,117.73
2019-02-26T21:57:41.305Z,106.23
2019-02-26T22:00:13.257Z,104.37
2019-02-26T22:02:44.265Z,107.90
2019-02-26T22:05:13.250Z,112.27
2019-02-26T22:07:42.446Z,116.73
2019-02-26T22:10:12.905Z,107.00
2019-02-26T22:12:42.133Z,104.27
2019-02-26T22:15:12.121Z,92.17
2019-02-26T22:17:41.257Z,100.57
2019-02-26T22:20:21.682Z,97.57
2019-02-26T22:22:42.568Z,101.07
2019-02-26T22:25:16.011Z,98.20
2019-02-26T22:27:43.055Z,88.90
2019-02-26T22:30:14.285Z,95.47
2019-02-26T22:32:43.384Z,91.47
2019-02-26T22:35:12.525Z,99.10
2019-02-26T22:37:42.110Z,92.73
2019-02-26T22:40:11.618Z,95.90
2019-02-26T22:42:41.349Z,87.67
2019-02-26T22:45:11.465Z,83.33
2019-02-26T22:47:41.498Z,88.27
2019-02-26T22:50:12.437Z,90.17
2019-02-26T22:52:41.599Z,81.50
2019-02-26T22:55:15.890Z,77.53
2019-02-26T22:57:42.051Z,85.33
2019-02-26T23:00:24.932Z,82.17
2019-02-26T23:02:54.040Z,94.13
2019-02-26T23:05:25.601Z,82.13
2019-02-26T23:07:54.953Z,83.73
2019-02-26T23:10:24.740Z,88.77
2019-02-26T23:12:54.589Z,75.73
2019-02-26T23:15:24.173Z,72.37
2019-02-26T23:17:53.293Z,73.30
2019-02-26T23:20:22.625Z,79.27
2019-02-26T23:22:51.730Z,70.93
2019-02-26T23:25:21.103Z,78.73
2019-02-26T23:27:50.229Z,76.83
2019-02-26T23:30:19.430Z,62.93
2019-02-26T23:32:48.535Z,74.40
2019-02-26T23:35:17.637Z,73.40
2019-02-26T23:37:46.809Z,80.23
2019-02-26T23:40:16.819Z,73.13
2019-02-26T23:42:46.082Z,77.13
2019-02-26T23:45:15.931Z,76.03
2019-02-26T23:47:45.050Z,72.17
2019-02-26T23:50:14.279Z,77.83
2019-02-26T23:52:43.398Z,71.43
2019-02-26T23:55:13.403Z,68.87
2019-02-26T23:57:43.245Z,81.50
